sensor_id;sensor_type;location;lat;lon;timestamp;P1;durP1;ratioP1;P2;durP2;ratioP2
11496;SDS011;5805;51.542;7.230;2024-03-02T00:01:03;1.92;;;1.30;;
11496;SDS011;5805;51.542;7.230;2024-03-02T00:03:29;1.13;;;0.98;;
11496;SDS011;5805;51.542;7.230;2024-03-02T00:05:54;1.98;;;1.40;;
11496;SDS011;5805;51.542;7.230;2024-03-02T00:08:22;1.30;;;1.20;;
11496;SDS011;5805;51.542;7.230;2024-03-02T00:10:50;2.40;;;1.17;;
11496;SDS011;5805;51.542;7.230;2024-03-02T00:13:15;2.05;;;1.10;;
11496;SDS011;5805;51.542;7.230;2024-03-02T00:15:45;1.33;;;1.20;;
11496;SDS011;5805;51.542;7.230;2024-03-02T00:18:13;2.60;;;1.00;;
11496;SDS011;5805;51.542;7.230;2024-03-02T00:20:39;2.00;;;1.30;;
11496;SDS011;5805;51.542;7.230;2024-03-02T00:23:06;1.70;;;1.20;;
11496;SDS011;5805;51.542;7.230;2024-03-02T00:25:38;1.35;;;1.00;;
11496;SDS011;5805;51.542;7.230;2024-03-02T00:28:09;1.98;;;1.02;;
11496;SDS011;5805;51.542;7.230;2024-03-02T00:30:50;1.20;;;1.10;;
11496;SDS011;5805;51.542;7.230;2024-03-02T00:33:19;2.05;;;1.13;;
11496;SDS011;5805;51.542;7.230;2024-03-02T00:35:46;2.10;;;0.95;;
11496;SDS011;5805;51.542;7.230;2024-03-02T00:38:12;1.42;;;1.20;;
11496;SDS011;5805;51.542;7.230;2024-03-02T00:40:39;2.00;;;1.35;;
11496;SDS011;5805;51.542;7.230;2024-03-02T00:43:04;1.38;;;1.10;;
11496;SDS011;5805;51.542;7.230;2024-03-02T00:45:39;0.98;;;0.88;;
11496;SDS011;5805;51.542;7.230;2024-03-02T00:48:05;2.70;;;1.05;;
11496;SDS011;5805;51.542;7.230;2024-03-02T00:50:33;1.48;;;1.00;;
11496;SDS011;5805;51.542;7.230;2024-03-02T00:52:58;1.42;;;1.10;;
11496;SDS011;5805;51.542;7.230;2024-03-02T00:55:24;5.13;;;1.27;;
11496;SDS011;5805;51.542;7.230;2024-03-02T00:57:50;2.65;;;1.20;;
11496;SDS011;5805;51.542;7.230;2024-03-02T01:00:17;1.20;;;1.10;;
11496;SDS011;5805;51.542;7.230;2024-03-02T01:02:43;2.50;;;1.10;;
11496;SDS011;5805;51.542;7.230;2024-03-02T01:05:09;1.63;;;1.00;;
11496;SDS011;5805;51.542;7.230;2024-03-02T01:07:34;1.48;;;1.05;;
11496;SDS011;5805;51.542;7.230;2024-03-02T01:10:02;0.88;;;0.80;;
11496;SDS011;5805;51.542;7.230;2024-03-02T01:12:29;1.00;;;0.90;;
11496;SDS011;5805;51.542;7.230;2024-03-02T01:14:54;1.80;;;1.20;;
11496;SDS011;5805;51.542;7.230;2024-03-02T01:17:21;2.40;;;1.02;;
11496;SDS011;5805;51.542;7.230;2024-03-02T01:19:47;1.15;;;1.05;;
11496;SDS011;5805;51.542;7.230;2024-03-02T01:22:15;1.45;;;0.93;;
11496;SDS011;5805;51.542;7.230;2024-03-02T01:24:41;1.65;;;1.10;;
11496;SDS011;5805;51.542;7.230;2024-03-02T01:27:07;3.42;;;1.20;;
11496;SDS011;5805;51.542;7.230;2024-03-02T01:29:33;2.30;;;0.98;;
11496;SDS011;5805;51.542;7.230;2024-03-02T01:31:58;0.98;;;0.88;;
11496;SDS011;5805;51.542;7.230;2024-03-02T01:34:25;1.33;;;0.95;;
11496;SDS011;5805;51.542;7.230;2024-03-02T01:36:51;1.30;;;0.95;;
11496;SDS011;5805;51.542;7.230;2024-03-02T01:39:17;0.82;;;0.73;;
11496;SDS011;5805;51.542;7.230;2024-03-02T01:41:42;1.55;;;0.90;;
11496;SDS011;5805;51.542;7.230;2024-03-02T01:44:08;1.77;;;0.88;;
11496;SDS011;5805;51.542;7.230;2024-03-02T01:46:34;1.63;;;0.70;;
11496;SDS011;5805;51.542;7.230;2024-03-02T01:48:59;2.67;;;1.13;;
11496;SDS011;5805;51.542;7.230;2024-03-02T01:51:27;0.70;;;0.70;;
11496;SDS011;5805;51.542;7.230;2024-03-02T01:53:52;0.73;;;0.70;;
11496;SDS011;5805;51.542;7.230;2024-03-02T01:56:18;0.90;;;0.70;;
11496;SDS011;5805;51.542;7.230;2024-03-02T01:58:44;2.30;;;0.98;;
11496;SDS011;5805;51.542;7.230;2024-03-02T02:01:09;0.80;;;0.73;;
11496;SDS011;5805;51.542;7.230;2024-03-02T02:03:35;1.25;;;0.77;;
11496;SDS011;5805;51.542;7.230;2024-03-02T02:06:01;1.80;;;0.90;;
11496;SDS011;5805;51.542;7.230;2024-03-02T02:08:28;2.67;;;0.80;;
11496;SDS011;5805;51.542;7.230;2024-03-02T02:10:54;1.42;;;0.90;;
11496;SDS011;5805;51.542;7.230;2024-03-02T02:13:19;1.17;;;0.90;;
11496;SDS011;5805;51.542;7.230;2024-03-02T02:15:45;0.73;;;0.73;;
11496;SDS011;5805;51.542;7.230;2024-03-02T02:18:11;1.52;;;0.82;;
11496;SDS011;5805;51.542;7.230;2024-03-02T02:20:36;1.40;;;0.90;;
11496;SDS011;5805;51.542;7.230;2024-03-02T02:23:04;1.13;;;0.77;;
11496;SDS011;5805;51.542;7.230;2024-03-02T02:25:32;0.90;;;0.80;;
11496;SDS011;5805;51.542;7.230;2024-03-02T02:27:57;1.25;;;0.80;;
11496;SDS011;5805;51.542;7.230;2024-03-02T02:30:24;1.65;;;0.80;;
11496;SDS011;5805;51.542;7.230;2024-03-02T02:32:50;0.70;;;0.70;;
11496;SDS011;5805;51.542;7.230;2024-03-02T02:35:16;2.67;;;1.05;;
11496;SDS011;5805;51.542;7.230;2024-03-02T02:37:42;1.50;;;0.80;;
11496;SDS011;5805;51.542;7.230;2024-03-02T02:40:10;3.28;;;0.98;;
11496;SDS011;5805;51.542;7.230;2024-03-02T02:42:37;1.23;;;0.85;;
11496;SDS011;5805;51.542;7.230;2024-03-02T02:45:02;3.42;;;1.02;;
11496;SDS011;5805;51.542;7.230;2024-03-02T02:47:28;1.17;;;0.85;;
11496;SDS011;5805;51.542;7.230;2024-03-02T02:49:54;1.55;;;0.75;;
11496;SDS011;5805;51.542;7.230;2024-03-02T02:52:20;1.40;;;0.70;;
11496;SDS011;5805;51.542;7.230;2024-03-02T02:54:46;0.93;;;0.73;;
11496;SDS011;5805;51.542;7.230;2024-03-02T02:57:13;3.15;;;0.93;;
11496;SDS011;5805;51.542;7.230;2024-03-02T02:59:38;0.68;;;0.68;;
11496;SDS011;5805;51.542;7.230;2024-03-02T03:02:04;0.75;;;0.68;;
11496;SDS011;5805;51.542;7.230;2024-03-02T03:04:30;1.30;;;0.90;;
11496;SDS011;5805;51.542;7.230;2024-03-02T03:06:55;1.90;;;0.88;;
11496;SDS011;5805;51.542;7.230;2024-03-02T03:09:21;1.10;;;0.60;;
11496;SDS011;5805;51.542;7.230;2024-03-02T03:11:47;1.27;;;0.90;;
11496;SDS011;5805;51.542;7.230;2024-03-02T03:14:14;1.00;;;0.75;;
11496;SDS011;5805;51.542;7.230;2024-03-02T03:16:40;0.95;;;0.60;;
11496;SDS011;5805;51.542;7.230;2024-03-02T03:19:05;2.38;;;1.15;;
11496;SDS011;5805;51.542;7.230;2024-03-02T03:21:31;1.75;;;0.75;;
11496;SDS011;5805;51.542;7.230;2024-03-02T03:23:57;2.50;;;1.30;;
11496;SDS011;5805;51.542;7.230;2024-03-02T03:26:23;1.63;;;0.70;;
11496;SDS011;5805;51.542;7.230;2024-03-02T03:28:48;1.52;;;0.95;;
11496;SDS011;5805;51.542;7.230;2024-03-02T03:31:15;0.73;;;0.70;;
11496;SDS011;5805;51.542;7.230;2024-03-02T03:33:41;0.70;;;0.70;;
11496;SDS011;5805;51.542;7.230;2024-03-02T03:36:07;2.47;;;0.90;;
11496;SDS011;5805;51.542;7.230;2024-03-02T03:38:32;1.08;;;0.73;;
11496;SDS011;5805;51.542;7.230;2024-03-02T03:41:00;1.30;;;0.90;;
11496;SDS011;5805;51.542;7.230;2024-03-02T03:43:26;1.40;;;0.70;;
11496;SDS011;5805;51.542;7.230;2024-03-02T03:45:51;1.02;;;0.90;;
11496;SDS011;5805;51.542;7.230;2024-03-02T03:48:19;0.90;;;0.73;;
11496;SDS011;5805;51.542;7.230;2024-03-02T03:50:44;2.20;;;1.23;;
11496;SDS011;5805;51.542;7.230;2024-03-02T03:53:10;1.55;;;0.70;;
11496;SDS011;5805;51.542;7.230;2024-03-02T03:55:35;0.70;;;0.70;;
11496;SDS011;5805;51.542;7.230;2024-03-02T03:58:01;0.60;;;0.60;;
11496;SDS011;5805;51.542;7.230;2024-03-02T04:00:27;3.70;;;1.27;;
11496;SDS011;5805;51.542;7.230;2024-03-02T04:02:53;0.82;;;0.52;;
11496;SDS011;5805;51.542;7.230;2024-03-02T04:05:20;0.93;;;0.70;;
11496;SDS011;5805;51.542;7.230;2024-03-02T04:07:46;1.27;;;0.90;;
11496;SDS011;5805;51.542;7.230;2024-03-02T04:10:11;0.95;;;0.82;;
11496;SDS011;5805;51.542;7.230;2024-03-02T04:12:37;1.23;;;0.80;;
11496;SDS011;5805;51.542;7.230;2024-03-02T04:15:04;1.15;;;0.80;;
11496;SDS011;5805;51.542;7.230;2024-03-02T04:17:31;1.65;;;0.80;;
11496;SDS011;5805;51.542;7.230;2024-03-02T04:19:57;1.95;;;0.80;;
11496;SDS011;5805;51.542;7.230;2024-03-02T04:22:24;3.15;;;0.77;;
11496;SDS011;5805;51.542;7.230;2024-03-02T04:24:50;1.25;;;0.70;;
11496;SDS011;5805;51.542;7.230;2024-03-02T04:27:16;1.23;;;0.88;;
11496;SDS011;5805;51.542;7.230;2024-03-02T04:29:41;1.52;;;0.80;;
11496;SDS011;5805;51.542;7.230;2024-03-02T04:32:07;1.20;;;0.85;;
11496;SDS011;5805;51.542;7.230;2024-03-02T04:34:33;0.90;;;0.80;;
11496;SDS011;5805;51.542;7.230;2024-03-02T04:36:58;0.85;;;0.60;;
11496;SDS011;5805;51.542;7.230;2024-03-02T04:39:25;0.93;;;0.80;;
11496;SDS011;5805;51.542;7.230;2024-03-02T04:41:53;1.50;;;0.90;;
11496;SDS011;5805;51.542;7.230;2024-03-02T04:44:18;0.88;;;0.70;;
11496;SDS011;5805;51.542;7.230;2024-03-02T04:46:44;0.65;;;0.63;;
11496;SDS011;5805;51.542;7.230;2024-03-02T04:49:10;2.97;;;0.90;;
11496;SDS011;5805;51.542;7.230;2024-03-02T04:51:35;1.27;;;0.90;;
11496;SDS011;5805;51.542;7.230;2024-03-02T04:54:01;2.25;;;0.70;;
11496;SDS011;5805;51.542;7.230;2024-03-02T04:56:28;1.35;;;0.90;;
11496;SDS011;5805;51.542;7.230;2024-03-02T04:58:54;1.58;;;0.80;;
11496;SDS011;5805;51.542;7.230;2024-03-02T05:01:20;0.95;;;0.88;;
11496;SDS011;5805;51.542;7.230;2024-03-02T05:03:45;2.83;;;0.98;;
11496;SDS011;5805;51.542;7.230;2024-03-02T05:06:11;0.50;;;0.50;;
11496;SDS011;5805;51.542;7.230;2024-03-02T05:08:37;1.88;;;0.73;;
11496;SDS011;5805;51.542;7.230;2024-03-02T05:11:02;1.42;;;0.70;;
11496;SDS011;5805;51.542;7.230;2024-03-02T05:13:29;1.38;;;0.80;;
11496;SDS011;5805;51.542;7.230;2024-03-02T05:15:56;1.20;;;0.80;;
11496;SDS011;5805;51.542;7.230;2024-03-02T05:18:21;2.03;;;1.00;;
11496;SDS011;5805;51.542;7.230;2024-03-02T05:20:47;1.58;;;0.70;;
11496;SDS011;5805;51.542;7.230;2024-03-02T05:23:13;0.70;;;0.70;;
11496;SDS011;5805;51.542;7.230;2024-03-02T05:25:38;0.90;;;0.73;;
11496;SDS011;5805;51.542;7.230;2024-03-02T05:28:04;1.27;;;0.63;;
11496;SDS011;5805;51.542;7.230;2024-03-02T05:30:32;1.13;;;0.90;;
11496;SDS011;5805;51.542;7.230;2024-03-02T05:32:57;1.17;;;0.80;;
11496;SDS011;5805;51.542;7.230;2024-03-02T05:35:23;1.13;;;1.02;;
11496;SDS011;5805;51.542;7.230;2024-03-02T05:37:49;0.75;;;0.75;;
11496;SDS011;5805;51.542;7.230;2024-03-02T05:40:14;1.02;;;0.70;;
11496;SDS011;5805;51.542;7.230;2024-03-02T05:42:40;2.05;;;1.05;;
11496;SDS011;5805;51.542;7.230;2024-03-02T05:45:06;1.63;;;1.00;;
11496;SDS011;5805;51.542;7.230;2024-03-02T05:47:34;0.90;;;0.73;;
11496;SDS011;5805;51.542;7.230;2024-03-02T05:49:59;0.60;;;0.60;;
11496;SDS011;5805;51.542;7.230;2024-03-02T05:52:25;2.20;;;0.80;;
11496;SDS011;5805;51.542;7.230;2024-03-02T05:54:51;1.23;;;1.13;;
11496;SDS011;5805;51.542;7.230;2024-03-02T05:57:16;1.50;;;0.90;;
11496;SDS011;5805;51.542;7.230;2024-03-02T05:59:42;1.40;;;1.05;;
11496;SDS011;5805;51.542;7.230;2024-03-02T06:02:08;1.42;;;1.00;;
11496;SDS011;5805;51.542;7.230;2024-03-02T06:04:35;1.95;;;1.10;;
11496;SDS011;5805;51.542;7.230;2024-03-02T06:07:01;1.60;;;0.90;;
11496;SDS011;5805;51.542;7.230;2024-03-02T06:09:28;2.05;;;1.10;;
11496;SDS011;5805;51.542;7.230;2024-03-02T06:11:54;2.13;;;1.20;;
11496;SDS011;5805;51.542;7.230;2024-03-02T06:14:20;3.75;;;1.25;;
11496;SDS011;5805;51.542;7.230;2024-03-02T06:16:45;5.20;;;1.08;;
11496;SDS011;5805;51.542;7.230;2024-03-02T06:19:11;1.67;;;1.20;;
11496;SDS011;5805;51.542;7.230;2024-03-02T06:21:38;1.70;;;1.08;;
11496;SDS011;5805;51.542;7.230;2024-03-02T06:24:04;1.13;;;1.00;;
11496;SDS011;5805;51.542;7.230;2024-03-02T06:26:30;2.15;;;1.20;;
11496;SDS011;5805;51.542;7.230;2024-03-02T06:28:56;1.88;;;1.55;;
11496;SDS011;5805;51.542;7.230;2024-03-02T06:31:22;1.85;;;1.52;;
11496;SDS011;5805;51.542;7.230;2024-03-02T06:33:47;1.92;;;1.30;;
11496;SDS011;5805;51.542;7.230;2024-03-02T06:36:13;1.88;;;1.20;;
11496;SDS011;5805;51.542;7.230;2024-03-02T06:38:40;1.67;;;1.30;;
11496;SDS011;5805;51.542;7.230;2024-03-02T06:41:06;1.55;;;1.40;;
11496;SDS011;5805;51.542;7.230;2024-03-02T06:43:31;1.95;;;1.40;;
11496;SDS011;5805;51.542;7.230;2024-03-02T06:45:57;1.58;;;1.40;;
11496;SDS011;5805;51.542;7.230;2024-03-02T06:48:23;2.40;;;1.27;;
11496;SDS011;5805;51.542;7.230;2024-03-02T06:50:49;1.58;;;1.30;;
11496;SDS011;5805;51.542;7.230;2024-03-02T06:53:15;1.65;;;1.20;;
11496;SDS011;5805;51.542;7.230;2024-03-02T06:55:43;2.80;;;1.30;;
11496;SDS011;5805;51.542;7.230;2024-03-02T06:58:08;3.88;;;1.58;;
11496;SDS011;5805;51.542;7.230;2024-03-02T07:00:34;1.40;;;1.30;;
11496;SDS011;5805;51.542;7.230;2024-03-02T07:03:00;1.25;;;1.15;;
11496;SDS011;5805;51.542;7.230;2024-03-02T07:05:25;2.90;;;1.90;;
11496;SDS011;5805;51.542;7.230;2024-03-02T07:07:51;1.75;;;1.40;;
11496;SDS011;5805;51.542;7.230;2024-03-02T07:10:17;2.75;;;1.30;;
11496;SDS011;5805;51.542;7.230;2024-03-02T07:12:44;1.65;;;1.40;;
11496;SDS011;5805;51.542;7.230;2024-03-02T07:15:09;1.55;;;1.42;;
11496;SDS011;5805;51.542;7.230;2024-03-02T07:17:35;3.75;;;1.50;;
11496;SDS011;5805;51.542;7.230;2024-03-02T07:20:01;2.15;;;1.50;;
11496;SDS011;5805;51.542;7.230;2024-03-02T07:22:26;2.08;;;1.50;;
11496;SDS011;5805;51.542;7.230;2024-03-02T07:24:52;2.40;;;1.80;;
11496;SDS011;5805;51.542;7.230;2024-03-02T07:27:18;4.25;;;1.65;;
11496;SDS011;5805;51.542;7.230;2024-03-02T07:29:45;2.03;;;1.50;;
11496;SDS011;5805;51.542;7.230;2024-03-02T07:32:11;1.90;;;1.50;;
11496;SDS011;5805;51.542;7.230;2024-03-02T07:34:36;2.60;;;1.50;;
11496;SDS011;5805;51.542;7.230;2024-03-02T07:37:02;2.67;;;1.52;;
11496;SDS011;5805;51.542;7.230;2024-03-02T07:39:28;2.75;;;1.60;;
11496;SDS011;5805;51.542;7.230;2024-03-02T07:41:57;1.52;;;1.42;;
11496;SDS011;5805;51.542;7.230;2024-03-02T07:44:24;3.05;;;1.58;;
11496;SDS011;5805;51.542;7.230;2024-03-02T07:46:53;1.77;;;1.10;;
11496;SDS011;5805;51.542;7.230;2024-03-02T07:49:18;2.53;;;1.48;;
11496;SDS011;5805;51.542;7.230;2024-03-02T07:51:44;2.65;;;1.77;;
11496;SDS011;5805;51.542;7.230;2024-03-02T07:54:10;3.10;;;1.55;;
11496;SDS011;5805;51.542;7.230;2024-03-02T07:56:36;2.55;;;1.50;;
11496;SDS011;5805;51.542;7.230;2024-03-02T07:59:02;2.20;;;1.60;;
11496;SDS011;5805;51.542;7.230;2024-03-02T08:01:28;2.70;;;1.60;;
11496;SDS011;5805;51.542;7.230;2024-03-02T08:03:56;1.33;;;1.23;;
11496;SDS011;5805;51.542;7.230;2024-03-02T08:06:22;1.73;;;1.48;;
11496;SDS011;5805;51.542;7.230;2024-03-02T08:08:48;3.03;;;1.20;;
11496;SDS011;5805;51.542;7.230;2024-03-02T08:11:13;3.05;;;1.50;;
11496;SDS011;5805;51.542;7.230;2024-03-02T08:13:39;2.05;;;1.38;;
11496;SDS011;5805;51.542;7.230;2024-03-02T08:16:05;3.03;;;1.40;;
11496;SDS011;5805;51.542;7.230;2024-03-02T08:18:31;4.20;;;1.55;;
11496;SDS011;5805;51.542;7.230;2024-03-02T08:20:58;1.45;;;1.25;;
11496;SDS011;5805;51.542;7.230;2024-03-02T08:23:24;1.98;;;1.58;;
11496;SDS011;5805;51.542;7.230;2024-03-02T08:25:50;2.65;;;1.42;;
11496;SDS011;5805;51.542;7.230;2024-03-02T08:28:16;2.20;;;1.08;;
11496;SDS011;5805;51.542;7.230;2024-03-02T08:30:41;1.55;;;1.38;;
11496;SDS011;5805;51.542;7.230;2024-03-02T08:33:07;2.17;;;1.40;;
11496;SDS011;5805;51.542;7.230;2024-03-02T08:35:33;2.00;;;1.50;;
11496;SDS011;5805;51.542;7.230;2024-03-02T08:38:00;1.60;;;1.45;;
11496;SDS011;5805;51.542;7.230;2024-03-02T08:40:26;2.85;;;1.45;;
11496;SDS011;5805;51.542;7.230;2024-03-02T08:42:51;2.50;;;1.50;;
11496;SDS011;5805;51.542;7.230;2024-03-02T08:45:17;2.72;;;1.35;;
11496;SDS011;5805;51.542;7.230;2024-03-02T08:47:44;3.25;;;1.55;;
11496;SDS011;5805;51.542;7.230;2024-03-02T08:50:09;1.60;;;1.40;;
11496;SDS011;5805;51.542;7.230;2024-03-02T08:52:35;1.95;;;1.35;;
11496;SDS011;5805;51.542;7.230;2024-03-02T08:55:02;1.42;;;1.30;;
11496;SDS011;5805;51.542;7.230;2024-03-02T08:57:28;1.75;;;1.02;;
11496;SDS011;5805;51.542;7.230;2024-03-02T08:59:54;2.25;;;1.02;;
11496;SDS011;5805;51.542;7.230;2024-03-02T09:02:23;2.78;;;1.05;;
11496;SDS011;5805;51.542;7.230;2024-03-02T09:04:48;1.30;;;1.10;;
11496;SDS011;5805;51.542;7.230;2024-03-02T09:07:14;1.23;;;1.00;;
11496;SDS011;5805;51.542;7.230;2024-03-02T09:09:41;2.22;;;1.40;;
11496;SDS011;5805;51.542;7.230;2024-03-02T09:12:08;2.28;;;1.50;;
11496;SDS011;5805;51.542;7.230;2024-03-02T09:14:34;2.00;;;1.40;;
11496;SDS011;5805;51.542;7.230;2024-03-02T09:17:01;2.03;;;1.00;;
11496;SDS011;5805;51.542;7.230;2024-03-02T09:19:27;3.00;;;1.17;;
11496;SDS011;5805;51.542;7.230;2024-03-02T09:21:52;1.33;;;1.00;;
11496;SDS011;5805;51.542;7.230;2024-03-02T09:24:18;3.17;;;1.20;;
11496;SDS011;5805;51.542;7.230;2024-03-02T09:26:44;1.52;;;1.13;;
11496;SDS011;5805;51.542;7.230;2024-03-02T09:29:11;1.70;;;1.20;;
11496;SDS011;5805;51.542;7.230;2024-03-02T09:31:39;1.33;;;1.00;;
11496;SDS011;5805;51.542;7.230;2024-03-02T09:34:05;2.97;;;1.05;;
11496;SDS011;5805;51.542;7.230;2024-03-02T09:36:30;3.38;;;1.23;;
11496;SDS011;5805;51.542;7.230;2024-03-02T09:38:56;1.10;;;1.00;;
11496;SDS011;5805;51.542;7.230;2024-03-02T09:41:22;1.55;;;1.10;;
11496;SDS011;5805;51.542;7.230;2024-03-02T09:43:47;2.35;;;1.08;;
11496;SDS011;5805;51.542;7.230;2024-03-02T09:46:15;1.30;;;1.02;;
11496;SDS011;5805;51.542;7.230;2024-03-02T09:48:41;1.45;;;0.90;;
11496;SDS011;5805;51.542;7.230;2024-03-02T09:51:07;2.88;;;1.08;;
11496;SDS011;5805;51.542;7.230;2024-03-02T09:53:34;1.77;;;0.95;;
11496;SDS011;5805;51.542;7.230;2024-03-02T09:56:00;2.13;;;1.00;;
11496;SDS011;5805;51.542;7.230;2024-03-02T09:58:26;1.05;;;0.80;;
11496;SDS011;5805;51.542;7.230;2024-03-02T10:00:51;1.95;;;1.00;;
11496;SDS011;5805;51.542;7.230;2024-03-02T10:03:19;1.73;;;0.90;;
11496;SDS011;5805;51.542;7.230;2024-03-02T10:05:45;1.40;;;1.00;;
11496;SDS011;5805;51.542;7.230;2024-03-02T10:08:11;2.45;;;0.90;;
11496;SDS011;5805;51.542;7.230;2024-03-02T10:10:36;1.58;;;0.90;;
11496;SDS011;5805;51.542;7.230;2024-03-02T10:13:03;1.05;;;0.95;;
11496;SDS011;5805;51.542;7.230;2024-03-02T10:15:29;2.17;;;1.15;;
11496;SDS011;5805;51.542;7.230;2024-03-02T10:17:55;1.95;;;0.98;;
11496;SDS011;5805;51.542;7.230;2024-03-02T10:20:23;2.08;;;1.05;;
11496;SDS011;5805;51.542;7.230;2024-03-02T10:22:49;3.53;;;1.27;;
11496;SDS011;5805;51.542;7.230;2024-03-02T10:25:27;2.38;;;0.90;;
11496;SDS011;5805;51.542;7.230;2024-03-02T10:27:56;0.75;;;0.70;;
11496;SDS011;5805;51.542;7.230;2024-03-02T10:30:22;1.05;;;0.90;;
11496;SDS011;5805;51.542;7.230;2024-03-02T10:32:48;0.60;;;0.60;;
11496;SDS011;5805;51.542;7.230;2024-03-02T10:35:14;2.13;;;0.85;;
11496;SDS011;5805;51.542;7.230;2024-03-02T10:37:42;1.52;;;0.70;;
11496;SDS011;5805;51.542;7.230;2024-03-02T10:40:09;1.90;;;0.75;;
11496;SDS011;5805;51.542;7.230;2024-03-02T10:42:36;1.65;;;0.70;;
11496;SDS011;5805;51.542;7.230;2024-03-02T10:45:04;0.90;;;0.60;;
11496;SDS011;5805;51.542;7.230;2024-03-02T10:47:32;1.35;;;0.85;;
11496;SDS011;5805;51.542;7.230;2024-03-02T10:50:00;1.20;;;0.93;;
11496;SDS011;5805;51.542;7.230;2024-03-02T10:52:28;1.90;;;1.05;;
11496;SDS011;5805;51.542;7.230;2024-03-02T10:54:55;0.85;;;0.70;;
11496;SDS011;5805;51.542;7.230;2024-03-02T10:57:21;1.10;;;0.88;;
11496;SDS011;5805;51.542;7.230;2024-03-02T10:59:52;1.88;;;1.27;;
11496;SDS011;5805;51.542;7.230;2024-03-02T11:02:21;2.08;;;0.88;;
11496;SDS011;5805;51.542;7.230;2024-03-02T11:04:49;1.85;;;1.05;;
11496;SDS011;5805;51.542;7.230;2024-03-02T11:07:17;1.63;;;0.80;;
11496;SDS011;5805;51.542;7.230;2024-03-02T11:09:46;1.85;;;0.75;;
11496;SDS011;5805;51.542;7.230;2024-03-02T11:12:19;0.70;;;0.70;;
11496;SDS011;5805;51.542;7.230;2024-03-02T11:14:51;1.45;;;0.82;;
11496;SDS011;5805;51.542;7.230;2024-03-02T11:17:16;2.08;;;1.20;;
11496;SDS011;5805;51.542;7.230;2024-03-02T11:19:43;2.20;;;1.20;;
11496;SDS011;5805;51.542;7.230;2024-03-02T11:22:09;1.17;;;0.85;;
11496;SDS011;5805;51.542;7.230;2024-03-02T11:24:36;1.90;;;0.95;;
11496;SDS011;5805;51.542;7.230;2024-03-02T11:27:02;1.73;;;0.85;;
11496;SDS011;5805;51.542;7.230;2024-03-02T11:29:46;1.83;;;0.98;;
11496;SDS011;5805;51.542;7.230;2024-03-02T11:32:16;1.50;;;0.88;;
11496;SDS011;5805;51.542;7.230;2024-03-02T11:34:43;1.35;;;0.70;;
11496;SDS011;5805;51.542;7.230;2024-03-02T11:37:10;1.75;;;0.73;;
11496;SDS011;5805;51.542;7.230;2024-03-02T11:39:37;2.20;;;0.80;;
11496;SDS011;5805;51.542;7.230;2024-03-02T11:42:04;4.07;;;0.75;;
11496;SDS011;5805;51.542;7.230;2024-03-02T11:44:32;1.38;;;0.80;;
11496;SDS011;5805;51.542;7.230;2024-03-02T11:47:00;0.80;;;0.60;;
11496;SDS011;5805;51.542;7.230;2024-03-02T11:49:36;0.80;;;0.77;;
11496;SDS011;5805;51.542;7.230;2024-03-02T11:52:02;1.95;;;0.80;;
11496;SDS011;5805;51.542;7.230;2024-03-02T11:54:30;2.10;;;0.80;;
11496;SDS011;5805;51.542;7.230;2024-03-02T11:56:58;1.27;;;0.70;;
11496;SDS011;5805;51.542;7.230;2024-03-02T11:59:26;0.90;;;0.50;;
11496;SDS011;5805;51.542;7.230;2024-03-02T12:01:52;1.15;;;0.93;;
11496;SDS011;5805;51.542;7.230;2024-03-02T12:04:20;1.00;;;0.60;;
11496;SDS011;5805;51.542;7.230;2024-03-02T12:06:46;1.23;;;0.75;;
11496;SDS011;5805;51.542;7.230;2024-03-02T12:09:14;1.77;;;0.82;;
11496;SDS011;5805;51.542;7.230;2024-03-02T12:11:40;2.63;;;0.80;;
11496;SDS011;5805;51.542;7.230;2024-03-02T12:14:10;1.17;;;0.80;;
11496;SDS011;5805;51.542;7.230;2024-03-02T12:16:36;0.60;;;0.60;;
11496;SDS011;5805;51.542;7.230;2024-03-02T12:19:02;1.92;;;0.73;;
11496;SDS011;5805;51.542;7.230;2024-03-02T12:21:29;1.52;;;0.90;;
11496;SDS011;5805;51.542;7.230;2024-03-02T12:23:54;1.77;;;0.60;;
11496;SDS011;5805;51.542;7.230;2024-03-02T12:26:21;0.85;;;0.70;;
11496;SDS011;5805;51.542;7.230;2024-03-02T12:28:47;1.45;;;1.00;;
11496;SDS011;5805;51.542;7.230;2024-03-02T12:31:13;1.10;;;0.70;;
11496;SDS011;5805;51.542;7.230;2024-03-02T12:33:39;2.55;;;0.95;;
11496;SDS011;5805;51.542;7.230;2024-03-02T12:36:05;1.15;;;0.70;;
11496;SDS011;5805;51.542;7.230;2024-03-02T12:38:36;1.23;;;0.68;;
11496;SDS011;5805;51.542;7.230;2024-03-02T12:41:01;0.82;;;0.70;;
11496;SDS011;5805;51.542;7.230;2024-03-02T12:43:29;0.95;;;0.52;;
11496;SDS011;5805;51.542;7.230;2024-03-02T12:45:55;0.77;;;0.50;;
11496;SDS011;5805;51.542;7.230;2024-03-02T12:48:21;0.90;;;0.68;;
11496;SDS011;5805;51.542;7.230;2024-03-02T12:50:47;0.50;;;0.50;;
11496;SDS011;5805;51.542;7.230;2024-03-02T12:53:16;0.80;;;0.73;;
11496;SDS011;5805;51.542;7.230;2024-03-02T12:55:43;3.90;;;0.85;;
11496;SDS011;5805;51.542;7.230;2024-03-02T12:58:09;1.42;;;0.70;;
11496;SDS011;5805;51.542;7.230;2024-03-02T13:00:41;1.25;;;0.80;;
11496;SDS011;5805;51.542;7.230;2024-03-02T13:03:07;1.48;;;0.70;;
11496;SDS011;5805;51.542;7.230;2024-03-02T13:05:33;0.60;;;0.52;;
11496;SDS011;5805;51.542;7.230;2024-03-02T13:07:58;0.82;;;0.65;;
11496;SDS011;5805;51.542;7.230;2024-03-02T13:10:24;1.20;;;0.45;;
11496;SDS011;5805;51.542;7.230;2024-03-02T13:12:52;0.52;;;0.40;;
11496;SDS011;5805;51.542;7.230;2024-03-02T13:15:17;0.85;;;0.63;;
11496;SDS011;5805;51.542;7.230;2024-03-02T13:17:44;0.77;;;0.60;;
11496;SDS011;5805;51.542;7.230;2024-03-02T13:20:10;1.17;;;0.60;;
11496;SDS011;5805;51.542;7.230;2024-03-02T13:22:35;0.50;;;0.50;;
11496;SDS011;5805;51.542;7.230;2024-03-02T13:25:02;0.60;;;0.45;;
11496;SDS011;5805;51.542;7.230;2024-03-02T13:27:28;0.77;;;0.60;;
11496;SDS011;5805;51.542;7.230;2024-03-02T13:29:55;0.55;;;0.55;;
11496;SDS011;5805;51.542;7.230;2024-03-02T13:32:20;0.98;;;0.70;;
11496;SDS011;5805;51.542;7.230;2024-03-02T13:34:47;0.55;;;0.50;;
11496;SDS011;5805;51.542;7.230;2024-03-02T13:37:13;0.82;;;0.50;;
11496;SDS011;5805;51.542;7.230;2024-03-02T13:39:38;0.70;;;0.70;;
11496;SDS011;5805;51.542;7.230;2024-03-02T13:42:04;1.40;;;0.57;;
11496;SDS011;5805;51.542;7.230;2024-03-02T13:44:30;0.45;;;0.45;;
11496;SDS011;5805;51.542;7.230;2024-03-02T13:46:58;0.50;;;0.50;;
11496;SDS011;5805;51.542;7.230;2024-03-02T13:49:25;0.50;;;0.50;;
11496;SDS011;5805;51.542;7.230;2024-03-02T13:51:50;0.93;;;0.50;;
11496;SDS011;5805;51.542;7.230;2024-03-02T13:54:16;1.00;;;0.60;;
11496;SDS011;5805;51.542;7.230;2024-03-02T13:56:42;0.40;;;0.40;;
11496;SDS011;5805;51.542;7.230;2024-03-02T13:59:07;0.60;;;0.50;;
11496;SDS011;5805;51.542;7.230;2024-03-02T14:01:33;1.40;;;0.30;;
11496;SDS011;5805;51.542;7.230;2024-03-02T14:04:00;0.50;;;0.50;;
11496;SDS011;5805;51.542;7.230;2024-03-02T14:06:26;0.43;;;0.43;;
11496;SDS011;5805;51.542;7.230;2024-03-02T14:08:52;0.47;;;0.40;;
11496;SDS011;5805;51.542;7.230;2024-03-02T14:11:17;1.38;;;0.52;;
11496;SDS011;5805;51.542;7.230;2024-03-02T14:13:43;0.40;;;0.40;;
11496;SDS011;5805;51.542;7.230;2024-03-02T14:16:09;3.67;;;1.00;;
11496;SDS011;5805;51.542;7.230;2024-03-02T14:18:35;1.40;;;0.63;;
11496;SDS011;5805;51.542;7.230;2024-03-02T14:21:03;0.63;;;0.50;;
11496;SDS011;5805;51.542;7.230;2024-03-02T14:23:29;0.50;;;0.43;;
11496;SDS011;5805;51.542;7.230;2024-03-02T14:25:54;3.28;;;0.73;;
11496;SDS011;5805;51.542;7.230;2024-03-02T14:28:20;0.73;;;0.60;;
11496;SDS011;5805;51.542;7.230;2024-03-02T14:30:46;0.88;;;0.75;;
11496;SDS011;5805;51.542;7.230;2024-03-02T14:33:11;2.40;;;0.60;;
11496;SDS011;5805;51.542;7.230;2024-03-02T14:35:38;0.63;;;0.63;;
11496;SDS011;5805;51.542;7.230;2024-03-02T14:38:05;1.20;;;0.43;;
11496;SDS011;5805;51.542;7.230;2024-03-02T14:40:31;1.17;;;0.50;;
11496;SDS011;5805;51.542;7.230;2024-03-02T14:42:56;0.65;;;0.60;;
11496;SDS011;5805;51.542;7.230;2024-03-02T14:45:22;0.50;;;0.50;;
11496;SDS011;5805;51.542;7.230;2024-03-02T14:47:48;1.00;;;0.90;;
11496;SDS011;5805;51.542;7.230;2024-03-02T14:50:16;0.65;;;0.65;;
11496;SDS011;5805;51.542;7.230;2024-03-02T14:52:43;0.98;;;0.70;;
11496;SDS011;5805;51.542;7.230;2024-03-02T14:55:11;3.22;;;0.63;;